createdAt,value
2022-12-03T00:00:13.837Z,11.90
2022-12-03T00:02:40.908Z,12.27
2022-12-03T00:05:07.520Z,12.13
2022-12-03T00:07:33.946Z,12.13
2022-12-03T00:10:00.304Z,11.77
2022-12-03T00:12:26.611Z,10.98
2022-12-03T00:14:53.026Z,13.57
2022-12-03T00:17:19.488Z,13.30
2022-12-03T00:19:48.635Z,11.68
2022-12-03T00:22:14.957Z,12.63
2022-12-03T00:24:41.288Z,12.18
2022-12-03T00:27:07.639Z,13.70
2022-12-03T00:29:33.969Z,13.60
2022-12-03T00:32:00.379Z,15.35
2022-12-03T00:34:26.696Z,18.45
2022-12-03T00:36:56.681Z,18.13
2022-12-03T00:39:23.054Z,15.63
2022-12-03T00:41:49.389Z,19.75
2022-12-03T00:44:15.788Z,14.07
2022-12-03T00:46:42.250Z,19.45
2022-12-03T00:49:08.686Z,18.30
2022-12-03T00:51:35.811Z,18.92
2022-12-03T00:54:02.266Z,14.65
2022-12-03T00:56:28.753Z,18.02
2022-12-03T00:58:55.082Z,17.73
2022-12-03T01:01:21.453Z,19.10
2022-12-03T01:03:47.914Z,16.88
2022-12-03T01:06:14.380Z,16.77
2022-12-03T01:08:40.762Z,17.73
2022-12-03T01:11:27.065Z,14.98
2022-12-03T01:13:53.452Z,19.30
2022-12-03T01:16:19.840Z,17.77
2022-12-03T01:18:46.311Z,17.58
2022-12-03T01:21:12.857Z,17.45
2022-12-03T01:23:39.190Z,18.50
2022-12-03T01:26:05.543Z,23.73
2022-12-03T01:28:32.383Z,18.23
2022-12-03T01:31:19.312Z,19.77
2022-12-03T01:33:45.697Z,15.00
2022-12-03T01:36:12.014Z,21.15
2022-12-03T01:38:38.436Z,19.38
2022-12-03T01:41:10.100Z,17.67
2022-12-03T01:43:38.092Z,18.73
2022-12-03T01:46:04.582Z,21.50
2022-12-03T01:48:32.979Z,19.83
2022-12-03T01:51:00.125Z,20.73
2022-12-03T01:53:26.544Z,14.73
2022-12-03T01:55:52.897Z,19.13
2022-12-03T01:58:21.021Z,20.60
2022-12-03T02:00:47.408Z,14.90
2022-12-03T02:03:20.780Z,17.48
2022-12-03T02:05:47.105Z,18.02
2022-12-03T02:08:35.342Z,17.98
2022-12-03T02:11:04.118Z,16.65
2022-12-03T02:13:30.647Z,18.42
2022-12-03T02:15:57.813Z,17.95
2022-12-03T02:18:24.213Z,21.13
2022-12-03T02:20:57.771Z,16.02
2022-12-03T02:23:44.357Z,17.35
2022-12-03T02:26:10.975Z,16.40
2022-12-03T02:28:38.403Z,18.42
2022-12-03T02:31:05.429Z,17.92
2022-12-03T02:33:32.153Z,18.10
2022-12-03T02:36:03.331Z,15.35
2022-12-03T02:38:30.634Z,19.17
2022-12-03T02:40:59.128Z,23.23
2022-12-03T02:43:25.510Z,20.40
2022-12-03T02:45:56.597Z,16.67
2022-12-03T02:48:28.811Z,22.92
2022-12-03T02:50:57.443Z,16.02
2022-12-03T02:53:25.716Z,18.45
2022-12-03T02:55:53.149Z,18.30
2022-12-03T02:58:20.606Z,16.77
2022-12-03T03:00:47.252Z,18.85
2022-12-03T03:03:13.678Z,17.85
2022-12-03T03:05:40.339Z,20.15
2022-12-03T03:08:07.999Z,15.98
2022-12-03T03:10:35.506Z,19.85
2022-12-03T03:13:02.543Z,20.63
2022-12-03T03:15:28.896Z,14.88
2022-12-03T03:17:55.895Z,17.65
2022-12-03T03:20:22.553Z,16.80
2022-12-03T03:22:48.912Z,20.02
2022-12-03T03:25:17.170Z,20.88
2022-12-03T03:27:44.505Z,19.00
2022-12-03T03:30:11.852Z,23.67
2022-12-03T03:32:38.592Z,17.33
2022-12-03T03:35:05.540Z,21.23
2022-12-03T03:37:31.984Z,20.15
2022-12-03T03:39:58.368Z,20.23
2022-12-03T03:42:24.745Z,18.38
2022-12-03T03:44:51.603Z,20.67
2022-12-03T03:47:18.408Z,16.63
2022-12-03T03:49:44.788Z,18.70
2022-12-03T03:52:11.805Z,20.30
2022-12-03T03:54:39.153Z,20.05
2022-12-03T03:57:05.611Z,19.08
2022-12-03T03:59:32.023Z,19.77
2022-12-03T04:01:58.445Z,16.50
2022-12-03T04:04:28.156Z,18.33
2022-12-03T04:06:54.592Z,19.08
2022-12-03T04:09:20.924Z,17.83
2022-12-03T04:12:05.970Z,17.35
2022-12-03T04:14:32.347Z,18.70
2022-12-03T04:16:58.785Z,17.48
2022-12-03T04:19:25.201Z,18.67
2022-12-03T04:22:10.425Z,16.98
2022-12-03T04:24:36.901Z,18.00
2022-12-03T04:27:22.124Z,17.17
2022-12-03T04:29:48.497Z,15.30
2022-12-03T04:32:33.243Z,16.58
2022-12-03T04:35:18.120Z,20.92
2022-12-03T04:37:44.558Z,15.95
2022-12-03T04:40:31.003Z,17.10
2022-12-03T04:42:57.486Z,15.90
2022-12-03T04:45:23.882Z,16.95
2022-12-03T04:47:50.249Z,18.23
2022-12-03T04:50:16.655Z,17.35
2022-12-03T04:52:42.979Z,16.48
2022-12-03T04:55:09.495Z,19.10
2022-12-03T04:57:35.861Z,16.92
2022-12-03T05:00:02.465Z,17.88
2022-12-03T05:02:28.897Z,16.98
2022-12-03T05:04:55.501Z,16.38
2022-12-03T05:07:22.125Z,18.80
2022-12-03T05:09:48.496Z,12.88
2022-12-03T05:12:14.839Z,17.58
2022-12-03T05:14:41.202Z,15.40
2022-12-03T05:17:07.626Z,15.70
2022-12-03T05:19:52.489Z,16.75
2022-12-03T05:22:18.829Z,16.67
2022-12-03T05:24:45.214Z,18.08
2022-12-03T05:27:11.606Z,16.25
2022-12-03T05:29:37.995Z,18.58
2022-12-03T05:32:04.565Z,16.67
2022-12-03T05:34:30.912Z,17.45
2022-12-03T05:36:57.278Z,20.55
2022-12-03T05:39:23.646Z,16.60
2022-12-03T05:42:08.424Z,17.55
2022-12-03T05:44:34.771Z,16.38
2022-12-03T05:47:01.115Z,14.65
2022-12-03T05:49:27.508Z,19.25
2022-12-03T05:51:58.418Z,18.63
2022-12-03T05:54:25.226Z,19.23
2022-12-03T05:56:51.570Z,13.88
2022-12-03T05:59:17.968Z,18.95
2022-12-03T06:01:44.375Z,16.23
2022-12-03T06:04:10.736Z,18.15
2022-12-03T06:06:37.038Z,16.45
2022-12-03T06:09:03.645Z,19.38
2022-12-03T06:11:30.314Z,17.33
2022-12-03T06:13:56.698Z,19.27
2022-12-03T06:16:23.079Z,17.30
2022-12-03T06:18:49.499Z,21.80
2022-12-03T06:21:15.950Z,17.13
2022-12-03T06:23:44.743Z,16.70
2022-12-03T06:26:14.601Z,18.60
2022-12-03T06:28:45.561Z,18.73
2022-12-03T06:31:12.616Z,15.32
2022-12-03T06:33:39.003Z,20.10
2022-12-03T06:36:05.597Z,16.98
2022-12-03T06:38:31.963Z,20.60
2022-12-03T06:40:58.297Z,18.48
2022-12-03T06:43:24.653Z,17.98
2022-12-03T06:45:50.969Z,14.60
2022-12-03T06:48:17.342Z,15.75
2022-12-03T06:50:43.864Z,19.10
2022-12-03T06:53:10.184Z,16.73
2022-12-03T06:55:36.514Z,14.55
2022-12-03T06:58:02.892Z,16.00
2022-12-03T07:00:32.261Z,15.35
2022-12-03T07:02:58.781Z,17.33
2022-12-03T07:05:25.220Z,14.82
2022-12-03T07:07:52.393Z,11.70
2022-12-03T07:10:19.168Z,15.13
2022-12-03T07:12:45.492Z,13.35
2022-12-03T07:15:12.185Z,15.25
2022-12-03T07:17:44.897Z,13.52
2022-12-03T07:20:11.533Z,14.90
2022-12-03T07:22:37.874Z,15.07
2022-12-03T07:25:04.740Z,13.95
2022-12-03T07:27:31.189Z,16.10
2022-12-03T07:30:18.939Z,12.07
2022-12-03T07:32:45.363Z,14.93
2022-12-03T07:35:11.717Z,13.63
2022-12-03T07:37:38.067Z,17.10
2022-12-03T07:40:04.966Z,15.52
2022-12-03T07:42:31.327Z,19.30
2022-12-03T07:44:57.763Z,16.23
2022-12-03T07:47:24.069Z,15.93
2022-12-03T07:49:50.461Z,15.13
2022-12-03T07:52:16.820Z,16.77
2022-12-03T07:54:43.166Z,20.25
2022-12-03T07:57:09.496Z,19.30
2022-12-03T07:59:35.852Z,16.33
2022-12-03T08:02:05.362Z,12.80
2022-12-03T08:04:31.877Z,15.75
2022-12-03T08:06:58.226Z,16.77
2022-12-03T08:09:24.568Z,15.98
2022-12-03T08:11:51.007Z,14.52
2022-12-03T08:14:19.721Z,12.90
2022-12-03T08:16:46.867Z,17.23
2022-12-03T08:19:17.900Z,13.25
2022-12-03T08:21:44.326Z,13.25
2022-12-03T08:24:13.653Z,14.43
2022-12-03T08:26:40.276Z,12.15
2022-12-03T08:29:10.960Z,14.85
2022-12-03T08:31:37.475Z,17.33
2022-12-03T08:34:15.857Z,11.52
2022-12-03T08:36:42.343Z,11.65
2022-12-03T08:39:24.025Z,9.48
2022-12-03T08:42:13.956Z,18.35
2022-12-03T08:44:41.360Z,11.18
2022-12-03T08:47:18.842Z,11.30
2022-12-03T08:49:53.939Z,11.50
2022-12-03T08:52:21.175Z,13.25
2022-12-03T08:54:55.340Z,13.77
2022-12-03T08:57:22.769Z,10.50
2022-12-03T08:59:49.512Z,13.52
2022-12-03T09:02:29.722Z,14.23
2022-12-03T09:04:56.404Z,12.77
2022-12-03T09:07:22.836Z,8.85
2022-12-03T09:09:49.243Z,11.98
2022-12-03T09:12:15.598Z,11.35
2022-12-03T09:14:42.008Z,13.65
2022-12-03T09:17:08.467Z,11.65
2022-12-03T09:19:34.914Z,11.13
2022-12-03T09:22:01.339Z,13.98
2022-12-03T09:24:27.712Z,15.02
2022-12-03T09:26:54.093Z,14.57
2022-12-03T09:29:21.588Z,13.52
2022-12-03T09:31:48.150Z,12.05
2022-12-03T09:34:14.611Z,10.75
2022-12-03T09:36:40.957Z,14.20
2022-12-03T09:39:07.533Z,13.88
2022-12-03T09:41:33.890Z,12.23
2022-12-03T09:44:05.455Z,12.93
2022-12-03T09:46:34.949Z,11.40
2022-12-03T09:49:01.895Z,12.93
2022-12-03T09:51:30.286Z,13.25
2022-12-03T09:53:58.337Z,11.80
2022-12-03T09:56:24.680Z,13.30
2022-12-03T09:58:51.010Z,10.73
2022-12-03T10:01:17.899Z,11.73
2022-12-03T10:03:46.492Z,10.10
2022-12-03T10:06:15.631Z,10.98
2022-12-03T10:08:42.451Z,12.02
2022-12-03T10:11:08.808Z,14.20
2022-12-03T10:13:37.271Z,13.35
2022-12-03T10:16:03.780Z,9.98
2022-12-03T10:18:32.761Z,11.13
2022-12-03T10:21:02.034Z,10.95
2022-12-03T10:23:29.573Z,11.32
2022-12-03T10:25:57.265Z,9.35
2022-12-03T10:28:36.714Z,11.15
2022-12-03T10:31:05.260Z,11.77
2022-12-03T10:33:36.142Z,10.00
2022-12-03T10:38:28.755Z,13.15
2022-12-03T10:40:59.831Z,14.15
2022-12-03T10:43:26.281Z,14.00
2022-12-03T10:46:03.531Z,7.72
2022-12-03T10:48:30.785Z,10.07
2022-12-03T10:50:59.866Z,10.98
2022-12-03T10:53:28.364Z,9.27
2022-12-03T10:55:59.400Z,10.85
2022-12-03T10:58:26.973Z,14.32
2022-12-03T11:00:54.805Z,10.20
2022-12-03T11:03:22.863Z,11.00
2022-12-03T11:05:50.242Z,8.68
2022-12-03T11:08:17.667Z,10.13
2022-12-03T11:10:44.289Z,11.00
2022-12-03T11:13:29.213Z,11.40
2022-12-03T11:15:56.385Z,8.70
2022-12-03T11:18:38.054Z,9.43
2022-12-03T11:21:09.051Z,12.20
2022-12-03T11:23:44.693Z,10.25
2022-12-03T11:26:17.095Z,8.35
2022-12-03T11:28:45.096Z,10.95
2022-12-03T11:31:31.677Z,9.55
2022-12-03T11:34:21.330Z,9.07
2022-12-03T11:37:06.055Z,9.82
2022-12-03T11:39:44.572Z,9.35
2022-12-03T11:42:26.171Z,10.02
2022-12-03T11:45:05.307Z,8.50
2022-12-03T11:47:34.821Z,8.05
2022-12-03T11:50:01.161Z,9.35
2022-12-03T11:52:41.597Z,8.82
2022-12-03T11:55:18.562Z,8.75
2022-12-03T11:57:45.310Z,10.18
2022-12-03T12:00:22.091Z,8.60
2022-12-03T12:02:49.249Z,8.48
2022-12-03T12:05:16.374Z,10.07
2022-12-03T12:07:42.875Z,8.95
2022-12-03T12:10:09.593Z,10.18
2022-12-03T12:12:40.822Z,7.88
2022-12-03T12:15:26.116Z,9.23
2022-12-03T12:17:52.500Z,8.02
2022-12-03T12:20:26.697Z,12.73
2022-12-03T12:22:54.145Z,9.02
2022-12-03T12:25:29.789Z,8.20
2022-12-03T12:27:56.988Z,8.38
2022-12-03T12:30:24.049Z,11.07
2022-12-03T12:32:51.970Z,11.07
2022-12-03T12:35:22.670Z,7.68
2022-12-03T12:38:07.445Z,8.32
2022-12-03T12:40:35.779Z,8.77
2022-12-03T12:43:10.270Z,9.27
2022-12-03T12:45:39.591Z,10.90
2022-12-03T12:48:44.541Z,7.75
2022-12-03T12:51:15.325Z,9.40
2022-12-03T12:53:45.135Z,8.65
2022-12-03T12:56:15.173Z,9.68
2022-12-03T12:58:41.752Z,8.33
2022-12-03T13:01:12.670Z,8.77
2022-12-03T13:06:05.515Z,12.13
2022-12-03T13:08:43.148Z,9.35
2022-12-03T13:11:24.791Z,9.30
2022-12-03T13:13:51.738Z,10.85
2022-12-03T13:16:19.947Z,8.45
2022-12-03T13:18:47.565Z,12.05
2022-12-03T13:21:16.686Z,8.10
2022-12-03T13:23:43.087Z,8.32
2022-12-03T13:26:38.291Z,7.88
2022-12-03T13:29:15.702Z,11.20
2022-12-03T13:31:46.746Z,9.82
2022-12-03T13:34:21.314Z,15.23
2022-12-03T13:36:53.550Z,12.70
2022-12-03T13:39:30.708Z,11.77
2022-12-03T13:42:17.042Z,11.57
2022-12-03T13:44:45.543Z,13.05
2022-12-03T13:47:13.790Z,11.40
2022-12-03T13:49:40.231Z,9.60
2022-12-03T13:52:15.603Z,10.75
2022-12-03T13:54:41.976Z,10.93
2022-12-03T13:57:08.386Z,10.77
2022-12-03T13:59:34.709Z,9.93
2022-12-03T14:02:01.180Z,8.90
2022-12-03T14:04:27.662Z,11.52
2022-12-03T14:06:53.995Z,9.13
2022-12-03T14:09:20.355Z,9.07
2022-12-03T14:12:05.312Z,10.57
2022-12-03T14:14:31.832Z,8.98
2022-12-03T14:17:00.084Z,12.30
2022-12-03T14:19:27.014Z,11.25
2022-12-03T14:21:53.468Z,8.90
2022-12-03T14:24:19.793Z,9.88
2022-12-03T14:26:46.241Z,9.75
2022-12-03T14:29:12.945Z,11.88
2022-12-03T14:31:39.340Z,12.57
2022-12-03T14:34:05.704Z,11.40
2022-12-03T14:36:32.068Z,10.00
2022-12-03T14:38:58.441Z,15.30
2022-12-03T14:41:43.448Z,9.82
2022-12-03T14:44:09.922Z,12.45
2022-12-03T14:46:36.375Z,11.82
2022-12-03T14:49:02.900Z,12.35
2022-12-03T14:51:29.293Z,9.88
2022-12-03T14:53:55.635Z,11.88
2022-12-03T14:56:22.005Z,13.57
2022-12-03T14:58:48.481Z,9.70
2022-12-03T15:01:15.118Z,11.52
2022-12-03T15:03:41.529Z,11.07
2022-12-03T15:06:07.849Z,9.40
2022-12-03T15:08:36.226Z,11.02
2022-12-03T15:11:02.694Z,16.17
2022-12-03T15:13:29.123Z,12.80
2022-12-03T15:15:55.446Z,11.80
2022-12-03T15:18:21.825Z,10.68
2022-12-03T15:20:49.577Z,9.05
2022-12-03T15:23:15.904Z,9.60
2022-12-03T15:25:42.422Z,11.13
2022-12-03T15:28:08.774Z,13.93
2022-12-03T15:30:35.848Z,11.65
2022-12-03T15:33:02.902Z,13.07
2022-12-03T15:35:32.291Z,11.65
2022-12-03T15:37:59.051Z,11.75
2022-12-03T15:40:25.819Z,11.68
2022-12-03T15:42:52.174Z,9.05
2022-12-03T15:45:18.874Z,10.95
2022-12-03T15:47:45.617Z,15.20
2022-12-03T15:50:14.118Z,11.45
2022-12-03T15:52:40.527Z,12.10
2022-12-03T15:55:07.083Z,11.13
2022-12-03T15:57:33.450Z,10.57
2022-12-03T16:00:00.112Z,14.43
2022-12-03T16:02:27.920Z,13.32
2022-12-03T16:04:54.321Z,12.35
2022-12-03T16:07:20.652Z,10.38
2022-12-03T16:09:47.001Z,12.18
2022-12-03T16:12:13.384Z,9.57
2022-12-03T16:14:39.769Z,16.23
2022-12-03T16:17:06.128Z,13.73
2022-12-03T16:19:32.478Z,15.80
2022-12-03T16:21:58.826Z,12.43
2022-12-03T16:24:27.480Z,8.13
2022-12-03T16:26:53.947Z,9.13
2022-12-03T16:29:20.405Z,10.10
2022-12-03T16:31:46.746Z,10.27
2022-12-03T16:34:13.404Z,10.80
2022-12-03T16:36:39.775Z,10.23
2022-12-03T16:39:06.171Z,9.52
2022-12-03T16:41:32.507Z,9.20
2022-12-03T16:44:01.622Z,9.48
2022-12-03T16:46:28.049Z,10.30
2022-12-03T16:48:55.596Z,10.07
2022-12-03T16:51:22.061Z,9.40
2022-12-03T16:53:48.817Z,10.20
2022-12-03T16:56:15.232Z,10.93
2022-12-03T16:58:41.574Z,10.77
2022-12-03T17:01:07.958Z,16.65
2022-12-03T17:03:34.437Z,8.77
2022-12-03T17:06:01.074Z,8.15
2022-12-03T17:08:27.804Z,8.93
2022-12-03T17:10:54.272Z,10.75
2022-12-03T17:13:20.748Z,11.50
2022-12-03T17:15:47.111Z,8.63
2022-12-03T17:18:13.523Z,8.15
2022-12-03T17:20:39.888Z,7.30
2022-12-03T17:23:08.340Z,8.75
2022-12-03T17:25:35.256Z,10.77
2022-12-03T17:28:01.871Z,9.25
2022-12-03T17:30:28.208Z,9.10
2022-12-03T17:32:54.615Z,12.38
2022-12-03T17:35:20.991Z,11.43
2022-12-03T17:37:47.351Z,9.35
2022-12-03T17:40:14.334Z,7.93
2022-12-03T17:42:40.709Z,8.02
2022-12-03T17:45:07.502Z,8.93
2022-12-03T17:47:33.819Z,10.18
2022-12-03T17:50:00.225Z,8.23
2022-12-03T17:52:26.588Z,8.52
2022-12-03T17:55:10.411Z,11.38
2022-12-03T17:57:38.421Z,9.57
2022-12-03T18:00:06.275Z,13.00
2022-12-03T18:02:33.012Z,11.18
2022-12-03T18:04:59.345Z,11.00
2022-12-03T18:07:25.757Z,10.20
2022-12-03T18:09:53.352Z,11.35
2022-12-03T18:12:19.817Z,13.00
2022-12-03T18:14:46.135Z,9.68
2022-12-03T18:17:13.787Z,9.00
2022-12-03T18:19:40.133Z,9.25
2022-12-03T18:22:06.508Z,10.82
2022-12-03T18:24:32.892Z,9.73
2022-12-03T18:26:59.361Z,13.15
2022-12-03T18:29:25.827Z,11.25
2022-12-03T18:31:52.255Z,10.57
2022-12-03T18:34:18.661Z,13.45
2022-12-03T18:36:45.464Z,11.77
2022-12-03T18:39:18.377Z,8.52
2022-12-03T18:41:44.750Z,12.30
2022-12-03T18:44:11.217Z,11.52
2022-12-03T18:46:52.894Z,14.50
2022-12-03T18:49:20.429Z,14.43
2022-12-03T18:51:48.332Z,11.32
2022-12-03T18:54:14.956Z,11.05
2022-12-03T18:56:41.567Z,22.00
2022-12-03T18:59:08.079Z,11.50
2022-12-03T19:01:34.480Z,10.07
2022-12-03T19:04:01.000Z,12.32
2022-12-03T19:06:29.088Z,11.75
2022-12-03T19:08:55.418Z,9.68
2022-12-03T19:11:22.095Z,8.38
2022-12-03T19:13:48.647Z,9.65
2022-12-03T19:16:17.127Z,6.53
2022-12-03T19:18:43.944Z,11.07
2022-12-03T19:21:11.374Z,9.57
2022-12-03T19:23:38.055Z,8.57
2022-12-03T19:26:06.035Z,9.02
2022-12-03T19:28:32.466Z,8.32
2022-12-03T19:31:03.557Z,9.73
2022-12-03T19:33:30.026Z,8.80
2022-12-03T19:35:56.967Z,11.50
2022-12-03T19:38:24.009Z,8.07
2022-12-03T19:41:09.253Z,10.57
2022-12-03T19:43:36.598Z,12.77
2022-12-03T19:46:06.923Z,10.13
2022-12-03T19:48:33.876Z,11.70
2022-12-03T19:51:19.784Z,9.00
2022-12-03T19:53:48.102Z,7.88
2022-12-03T19:56:16.982Z,8.70
2022-12-03T19:58:45.128Z,14.02
2022-12-03T20:01:12.994Z,11.55
2022-12-03T20:03:40.284Z,11.23
2022-12-03T20:06:07.087Z,9.25
2022-12-03T20:08:37.251Z,25.25
2022-12-03T20:11:09.325Z,11.38
2022-12-03T20:13:36.634Z,14.32
2022-12-03T20:16:06.882Z,11.23
2022-12-03T20:18:33.285Z,10.77
2022-12-03T20:21:00.266Z,11.88
2022-12-03T20:23:28.889Z,14.48
2022-12-03T20:25:55.385Z,9.32
2022-12-03T20:28:21.704Z,7.95
2022-12-03T20:30:58.083Z,10.60
2022-12-03T20:33:24.418Z,9.70
2022-12-03T20:35:54.643Z,9.60
2022-12-03T20:38:21.488Z,7.70
2022-12-03T20:40:47.995Z,8.57
2022-12-03T20:43:14.424Z,10.07
2022-12-03T20:45:41.212Z,7.90
2022-12-03T20:48:07.710Z,10.07
2022-12-03T20:50:35.259Z,9.18
2022-12-03T20:53:23.346Z,12.25
2022-12-03T20:55:54.612Z,6.93
2022-12-03T20:58:20.954Z,7.75
2022-12-03T21:00:47.393Z,10.63
2022-12-03T21:03:13.910Z,9.70
2022-12-03T21:05:40.711Z,9.13
2022-12-03T21:08:07.163Z,7.00
2022-12-03T21:10:44.496Z,7.80
2022-12-03T21:13:12.092Z,8.55
2022-12-03T21:15:38.416Z,10.43
2022-12-03T21:18:04.839Z,9.20
2022-12-03T21:20:31.248Z,10.52
2022-12-03T21:22:57.630Z,9.82
2022-12-03T21:25:24.007Z,12.23
2022-12-03T21:27:50.569Z,19.83
2022-12-03T21:30:16.892Z,10.65
2022-12-03T21:32:43.224Z,9.15
2022-12-03T21:35:10.199Z,8.38
2022-12-03T21:37:36.643Z,6.65
2022-12-03T21:40:03.253Z,8.15
2022-12-03T21:42:36.424Z,5.78
2022-12-03T21:45:06.437Z,6.45
2022-12-03T21:47:37.244Z,6.90
2022-12-03T21:50:05.615Z,5.50
2022-12-03T21:52:32.070Z,7.35
2022-12-03T21:54:58.404Z,8.02
2022-12-03T21:57:24.740Z,6.22
2022-12-03T21:59:51.253Z,9.02
2022-12-03T22:02:17.758Z,8.52
2022-12-03T22:04:44.183Z,9.35
2022-12-03T22:07:10.526Z,5.53
2022-12-03T22:09:36.912Z,6.10
2022-12-03T22:12:03.307Z,5.22
2022-12-03T22:14:30.061Z,8.00
2022-12-03T22:16:56.391Z,7.18
2022-12-03T22:19:25.466Z,7.32
2022-12-03T22:21:51.947Z,5.75
2022-12-03T22:24:19.424Z,5.22
2022-12-03T22:26:46.303Z,5.68
2022-12-03T22:29:12.981Z,7.68
2022-12-03T22:31:39.322Z,6.05
2022-12-03T22:34:05.730Z,5.55
2022-12-03T22:36:32.053Z,6.68
2022-12-03T22:38:58.496Z,5.35
2022-12-03T22:41:24.816Z,5.82
2022-12-03T22:43:51.129Z,6.18
2022-12-03T22:46:17.566Z,8.63
2022-12-03T22:48:45.050Z,4.82
2022-12-03T22:51:15.654Z,7.97
2022-12-03T22:53:42.083Z,6.75
2022-12-03T22:56:08.839Z,6.47
2022-12-03T22:58:37.217Z,7.38
2022-12-03T23:01:03.787Z,6.85
2022-12-03T23:03:30.626Z,5.95
2022-12-03T23:05:57.162Z,4.60
2022-12-03T23:08:23.736Z,5.93
2022-12-03T23:10:51.180Z,4.20
2022-12-03T23:13:17.898Z,5.68
2022-12-03T23:15:48.452Z,7.35
2022-12-03T23:18:14.930Z,4.55
2022-12-03T23:20:42.242Z,4.80
2022-12-03T23:23:08.625Z,7.60
2022-12-03T23:25:35.040Z,5.93
2022-12-03T23:28:01.498Z,6.43
2022-12-03T23:30:27.988Z,3.67
2022-12-03T23:32:54.342Z,8.02
2022-12-03T23:35:20.729Z,8.40
2022-12-03T23:37:47.122Z,7.07
2022-12-03T23:40:13.881Z,5.47
2022-12-03T23:42:40.241Z,5.65
2022-12-03T23:45:06.916Z,7.72
2022-12-03T23:47:33.514Z,4.53
2022-12-03T23:49:59.915Z,5.78
2022-12-03T23:52:27.620Z,5.68
2022-12-03T23:54:54.025Z,6.53
2022-12-03T23:57:20.418Z,3.58
2022-12-03T23:59:46.867Z,4.85
